createdAt,value
2019-01-30T00:01:09.830Z,45.80
2019-01-30T00:03:37.554Z,45.70
2019-01-30T00:06:05.021Z,45.70
2019-01-30T00:08:32.494Z,45.70
2019-01-30T00:10:59.962Z,45.80
2019-01-30T00:13:27.453Z,45.70
2019-01-30T00:15:56.395Z,45.70
2019-01-30T00:18:24.117Z,45.50
2019-01-30T00:20:51.584Z,45.60
2019-01-30T00:23:19.045Z,45.60
2019-01-30T00:25:46.514Z,45.70
2019-01-30T00:28:13.974Z,45.80
2019-01-30T00:30:41.446Z,45.70
2019-01-30T00:33:08.918Z,45.60
2019-01-30T00:35:36.389Z,45.60
2019-01-30T00:38:03.844Z,45.60
2019-01-30T00:40:31.322Z,45.70
2019-01-30T00:42:58.785Z,45.70
2019-01-30T00:45:26.299Z,45.60
2019-01-30T00:47:53.802Z,45.50
2019-01-30T00:50:22.048Z,45.40
2019-01-30T00:52:49.517Z,45.50
2019-01-30T00:55:17.001Z,45.50
2019-01-30T00:57:44.466Z,45.50
2019-01-30T01:00:14.577Z,45.40
2019-01-30T01:02:42.410Z,45.40
2019-01-30T01:05:09.885Z,45.90
2019-01-30T01:07:37.349Z,45.50
2019-01-30T01:10:06.517Z,45.50
2019-01-30T01:12:33.984Z,45.50
2019-01-30T01:15:01.467Z,45.70
2019-01-30T01:17:28.926Z,45.70
2019-01-30T01:19:56.390Z,45.60
2019-01-30T01:22:23.861Z,45.50
2019-01-30T01:24:51.349Z,45.50
2019-01-30T01:27:18.820Z,45.50
2019-01-30T01:29:46.291Z,46.10
2019-01-30T01:32:13.744Z,45.50
2019-01-30T01:34:41.210Z,45.50
2019-01-30T01:37:08.689Z,45.50
2019-01-30T01:39:36.154Z,45.40
2019-01-30T01:42:03.625Z,45.40
2019-01-30T01:44:31.089Z,45.40
2019-01-30T01:46:58.552Z,45.40
2019-01-30T01:49:26.025Z,45.40
2019-01-30T01:51:53.506Z,45.40
2019-01-30T01:54:21.049Z,45.50
2019-01-30T01:56:48.520Z,45.40
2019-01-30T01:59:16.018Z,45.40
2019-01-30T02:01:43.486Z,45.30
2019-01-30T02:04:10.945Z,45.40
2019-01-30T02:06:38.421Z,45.40
2019-01-30T02:09:07.329Z,45.30
2019-01-30T02:11:34.800Z,45.30
2019-01-30T02:14:02.261Z,45.30
2019-01-30T02:16:29.731Z,45.30
2019-01-30T02:18:57.197Z,45.30
2019-01-30T02:21:24.678Z,45.40
2019-01-30T02:23:52.140Z,45.40
2019-01-30T02:26:19.609Z,45.40
2019-01-30T02:28:47.078Z,45.60
2019-01-30T02:31:14.555Z,45.40
2019-01-30T02:33:42.013Z,45.30
2019-01-30T02:36:09.748Z,45.30
2019-01-30T02:38:37.218Z,45.20
2019-01-30T02:41:04.687Z,45.20
2019-01-30T02:43:32.160Z,45.20
2019-01-30T02:45:59.626Z,45.20
2019-01-30T02:48:27.097Z,45.10
2019-01-30T02:50:54.566Z,45.20
2019-01-30T02:53:22.354Z,45.20
2019-01-30T02:55:49.815Z,45.70
2019-01-30T02:58:17.305Z,45.30
2019-01-30T03:00:44.826Z,45.20
2019-01-30T03:03:12.289Z,45.20
2019-01-30T03:05:39.761Z,45.20
2019-01-30T03:08:07.231Z,45.20
2019-01-30T03:10:34.684Z,45.00
2019-01-30T03:13:02.158Z,44.90
2019-01-30T03:15:29.616Z,45.00
2019-01-30T03:17:57.080Z,45.20
2019-01-30T03:20:28.210Z,45.20
2019-01-30T03:22:55.682Z,45.20
2019-01-30T03:25:24.112Z,45.30
2019-01-30T03:27:51.806Z,45.30
2019-01-30T03:30:20.343Z,45.30
2019-01-30T03:32:47.806Z,45.90
2019-01-30T03:35:15.278Z,45.40
2019-01-30T03:37:42.733Z,45.30
2019-01-30T03:40:11.677Z,45.20
2019-01-30T03:42:39.149Z,45.20
2019-01-30T03:45:07.677Z,44.80
2019-01-30T03:47:35.141Z,45.70
2019-01-30T03:50:02.686Z,45.10
2019-01-30T03:52:30.161Z,45.10
2019-01-30T03:54:57.630Z,45.80
2019-01-30T03:57:25.112Z,45.20
2019-01-30T03:59:52.583Z,45.20
2019-01-30T04:02:20.053Z,45.20
2019-01-30T04:04:47.526Z,45.20
2019-01-30T04:07:14.995Z,45.20
2019-01-30T04:09:42.582Z,45.10
2019-01-30T04:12:10.050Z,45.20
2019-01-30T04:14:37.609Z,45.20
2019-01-30T04:17:05.152Z,45.10
2019-01-30T04:19:32.625Z,44.90
2019-01-30T04:22:00.094Z,44.80
2019-01-30T04:24:27.572Z,44.90
2019-01-30T04:26:55.025Z,45.10
2019-01-30T04:29:22.490Z,45.10
2019-01-30T04:31:49.956Z,45.20
2019-01-30T04:34:17.539Z,45.20
2019-01-30T04:36:45.007Z,45.10
2019-01-30T04:39:12.465Z,45.10
2019-01-30T04:41:39.937Z,44.90
2019-01-30T04:44:07.402Z,44.80
2019-01-30T04:46:34.866Z,44.80
2019-01-30T04:49:02.338Z,44.80
2019-01-30T04:51:29.811Z,44.80
2019-01-30T04:53:57.285Z,44.80
2019-01-30T04:56:24.825Z,44.80
2019-01-30T04:58:52.631Z,44.80
2019-01-30T05:01:20.362Z,44.80
2019-01-30T05:03:47.834Z,44.70
2019-01-30T05:06:15.306Z,44.80
2019-01-30T05:08:42.765Z,44.80
2019-01-30T05:11:10.258Z,44.80
2019-01-30T05:13:37.702Z,44.80
2019-01-30T05:16:05.178Z,44.80
2019-01-30T05:18:32.642Z,44.80
2019-01-30T05:21:00.185Z,44.70
2019-01-30T05:23:27.681Z,44.80
2019-01-30T05:25:55.153Z,44.90
2019-01-30T05:28:22.617Z,44.70
2019-01-30T05:30:50.261Z,44.80
2019-01-30T05:33:17.766Z,44.80
2019-01-30T05:35:45.251Z,44.80
2019-01-30T05:38:12.713Z,44.80
2019-01-30T05:40:40.176Z,44.80
2019-01-30T05:43:07.661Z,44.80
2019-01-30T05:45:35.128Z,44.80
2019-01-30T05:48:02.660Z,44.80
2019-01-30T05:50:30.168Z,44.80
2019-01-30T05:52:57.641Z,44.70
2019-01-30T05:55:25.093Z,44.70
2019-01-30T05:57:52.854Z,44.70
2019-01-30T06:00:23.590Z,44.60
2019-01-30T06:02:51.067Z,44.70
2019-01-30T06:05:18.535Z,44.70
2019-01-30T06:07:46.018Z,44.70
2019-01-30T06:10:13.478Z,44.80
2019-01-30T06:12:40.980Z,44.80
2019-01-30T06:15:13.038Z,44.80
2019-01-30T06:17:40.513Z,44.80
2019-01-30T06:20:12.305Z,44.60
2019-01-30T06:22:39.791Z,44.70
2019-01-30T06:25:08.247Z,44.70
2019-01-30T06:27:35.789Z,44.80
2019-01-30T06:30:03.521Z,44.80
2019-01-30T06:32:30.990Z,44.80
2019-01-30T06:34:58.468Z,44.80
2019-01-30T06:37:25.926Z,44.80
2019-01-30T06:39:53.402Z,44.80
2019-01-30T06:42:20.871Z,44.80
2019-01-30T06:44:48.350Z,44.80
2019-01-30T06:47:15.822Z,44.30
2019-01-30T06:49:43.295Z,44.80
2019-01-30T06:52:10.761Z,44.80
2019-01-30T06:54:38.241Z,44.80
2019-01-30T06:57:05.720Z,44.80
2019-01-30T06:59:33.201Z,44.80
2019-01-30T07:02:00.677Z,44.80
2019-01-30T07:04:28.146Z,44.80
2019-01-30T07:06:55.613Z,44.80
2019-01-30T07:09:23.085Z,44.80
2019-01-30T07:11:50.553Z,44.80
2019-01-30T07:14:18.040Z,44.80
2019-01-30T07:16:45.513Z,44.80
2019-01-30T07:19:12.994Z,44.80
2019-01-30T07:21:40.457Z,44.80
2019-01-30T07:24:07.961Z,44.80
2019-01-30T07:26:35.434Z,44.80
2019-01-30T07:29:02.905Z,44.80
2019-01-30T07:31:30.382Z,44.80
2019-01-30T07:33:57.878Z,44.80
2019-01-30T07:36:25.346Z,44.80
2019-01-30T07:38:52.822Z,44.80
2019-01-30T07:41:20.309Z,44.70
2019-01-30T07:43:47.783Z,44.70
2019-01-30T07:46:15.253Z,44.60
2019-01-30T07:48:42.802Z,44.70
2019-01-30T07:51:10.345Z,44.60
2019-01-30T07:53:37.821Z,44.70
2019-01-30T07:56:05.302Z,44.80
2019-01-30T07:58:32.886Z,44.80
2019-01-30T08:01:00.393Z,44.80
2019-01-30T08:03:27.920Z,44.80
2019-01-30T08:05:55.389Z,44.70
2019-01-30T08:08:22.855Z,44.70
2019-01-30T08:10:50.345Z,44.70
2019-01-30T08:13:17.824Z,44.80
2019-01-30T08:15:45.301Z,44.80
2019-01-30T08:18:12.768Z,44.80
2019-01-30T08:20:40.242Z,44.90
2019-01-30T08:23:08.016Z,44.50
2019-01-30T08:25:35.874Z,44.40
2019-01-30T08:28:03.514Z,44.40
2019-01-30T08:30:31.386Z,44.60
2019-01-30T08:33:04.696Z,44.50
2019-01-30T08:35:28.979Z,44.50
2019-01-30T08:37:56.455Z,44.60
2019-01-30T08:40:23.931Z,44.60
2019-01-30T08:42:52.205Z,44.50
2019-01-30T08:45:26.784Z,44.50
2019-01-30T08:47:54.254Z,44.60
2019-01-30T08:50:21.729Z,44.40
2019-01-30T08:52:49.202Z,44.30
2019-01-30T08:55:16.669Z,44.30
2019-01-30T08:57:44.135Z,44.40
2019-01-30T09:00:15.903Z,44.50
2019-01-30T09:02:43.387Z,44.40
2019-01-30T09:05:11.324Z,44.50
2019-01-30T09:07:44.357Z,45.10
2019-01-30T09:10:09.622Z,44.50
2019-01-30T09:12:37.098Z,44.50
2019-01-30T09:15:06.726Z,44.40
2019-01-30T09:17:34.197Z,44.40
2019-01-30T09:20:01.683Z,44.40
2019-01-30T09:22:29.152Z,44.30
2019-01-30T09:24:56.627Z,44.30
2019-01-30T09:27:24.350Z,44.30
2019-01-30T09:29:51.941Z,44.30
2019-01-30T09:32:19.408Z,44.50
2019-01-30T09:34:46.884Z,44.60
2019-01-30T09:37:14.351Z,44.80
2019-01-30T09:39:41.825Z,44.80
2019-01-30T09:42:09.327Z,44.80
2019-01-30T09:44:36.834Z,44.80
2019-01-30T09:47:04.310Z,44.80
2019-01-30T09:49:31.787Z,44.80
2019-01-30T09:51:59.267Z,44.80
2019-01-30T09:54:26.732Z,44.80
2019-01-30T09:56:54.197Z,44.80
2019-01-30T09:59:21.677Z,44.80
2019-01-30T10:01:49.145Z,45.10
2019-01-30T10:04:16.614Z,44.80
2019-01-30T10:06:44.081Z,44.80
2019-01-30T10:09:11.855Z,44.80
2019-01-30T10:11:39.480Z,44.80
2019-01-30T10:14:07.339Z,44.80
2019-01-30T10:16:34.878Z,45.10
2019-01-30T10:19:02.395Z,45.40
2019-01-30T10:21:29.861Z,44.90
2019-01-30T10:23:57.325Z,44.90
2019-01-30T10:26:24.800Z,44.80
2019-01-30T10:28:52.390Z,44.80
2019-01-30T10:31:19.912Z,44.80
2019-01-30T10:33:47.375Z,44.80
2019-01-30T10:36:14.858Z,44.80
2019-01-30T10:38:42.618Z,44.80
2019-01-30T10:41:10.090Z,44.80
2019-01-30T10:43:37.558Z,44.80
2019-01-30T10:46:05.029Z,44.80
2019-01-30T10:48:32.490Z,44.80
2019-01-30T10:50:59.952Z,44.80
2019-01-30T10:53:27.418Z,44.80
2019-01-30T10:55:54.914Z,44.80
2019-01-30T10:58:22.378Z,44.80
2019-01-30T11:00:50.431Z,44.80
2019-01-30T11:03:18.273Z,44.80
2019-01-30T11:05:45.728Z,44.80
2019-01-30T11:08:13.201Z,44.70
2019-01-30T11:10:40.690Z,44.80
2019-01-30T11:13:08.159Z,44.80
2019-01-30T11:15:35.629Z,44.80
2019-01-30T11:18:03.374Z,44.80
2019-01-30T11:20:30.838Z,44.80
2019-01-30T11:22:58.309Z,44.80
2019-01-30T11:25:29.849Z,44.80
2019-01-30T11:27:57.320Z,44.80
2019-01-30T11:30:24.783Z,44.60
2019-01-30T11:32:52.261Z,44.70
2019-01-30T11:35:19.726Z,44.70
2019-01-30T11:37:47.205Z,44.60
2019-01-30T11:40:15.802Z,44.60
2019-01-30T11:42:43.281Z,44.60
2019-01-30T11:45:24.511Z,44.60
2019-01-30T11:47:51.993Z,44.70
2019-01-30T11:50:19.464Z,44.90
2019-01-30T11:52:46.934Z,44.80
2019-01-30T11:55:15.237Z,44.80
2019-01-30T11:57:42.713Z,44.80
2019-01-30T12:00:12.918Z,44.80
2019-01-30T12:02:47.759Z,44.80
2019-01-30T12:05:11.162Z,45.40
2019-01-30T12:07:38.653Z,44.80
2019-01-30T12:10:07.993Z,44.80
2019-01-30T12:12:35.477Z,44.70
2019-01-30T12:15:04.014Z,44.60
2019-01-30T12:17:31.481Z,44.60
2019-01-30T12:19:58.942Z,44.70
2019-01-30T12:22:26.409Z,44.70
2019-01-30T12:24:53.873Z,44.60
2019-01-30T12:27:21.337Z,44.60
2019-01-30T12:29:48.808Z,44.50
2019-01-30T12:32:16.283Z,44.50
2019-01-30T12:34:43.756Z,44.50
2019-01-30T12:37:11.345Z,44.40
2019-01-30T12:39:38.841Z,44.60
2019-01-30T12:42:06.305Z,44.60
2019-01-30T12:44:33.781Z,44.60
2019-01-30T12:47:01.242Z,44.50
2019-01-30T12:49:28.827Z,44.60
2019-01-30T12:51:56.298Z,44.50
2019-01-30T12:54:23.770Z,44.40
2019-01-30T12:56:51.233Z,44.60
2019-01-30T12:59:18.714Z,44.50
2019-01-30T13:01:46.182Z,44.70
2019-01-30T13:04:13.902Z,44.70
2019-01-30T13:06:41.370Z,44.80
2019-01-30T13:09:08.910Z,44.60
2019-01-30T13:11:36.375Z,44.60
2019-01-30T13:14:04.058Z,44.80
2019-01-30T13:16:31.516Z,44.70
2019-01-30T13:18:58.983Z,44.60
2019-01-30T13:21:26.446Z,44.60
2019-01-30T13:23:53.911Z,44.60
2019-01-30T13:26:21.382Z,44.60
2019-01-30T13:28:48.850Z,44.60
2019-01-30T13:31:16.645Z,44.60
2019-01-30T13:33:44.111Z,44.50
2019-01-30T13:36:11.584Z,44.60
2019-01-30T13:38:39.059Z,44.70
2019-01-30T13:41:06.531Z,44.50
2019-01-30T13:43:33.990Z,44.40
2019-01-30T13:46:05.469Z,44.50
2019-01-30T13:48:31.574Z,44.50
2019-01-30T13:50:59.224Z,45.20
2019-01-30T13:53:26.704Z,44.60
2019-01-30T13:55:54.282Z,44.70
2019-01-30T13:58:21.753Z,44.60
2019-01-30T14:00:49.210Z,44.50
2019-01-30T14:03:16.753Z,44.50
2019-01-30T14:05:44.253Z,44.40
2019-01-30T14:08:11.796Z,44.40
2019-01-30T14:10:39.308Z,44.70
2019-01-30T14:13:06.777Z,44.60
2019-01-30T14:15:34.247Z,44.60
2019-01-30T14:18:01.734Z,44.50
2019-01-30T14:20:29.497Z,44.50
2019-01-30T14:22:56.967Z,44.60
2019-01-30T14:25:24.429Z,44.60
2019-01-30T14:27:51.912Z,44.60
2019-01-30T14:30:26.597Z,44.60
2019-01-30T14:32:54.084Z,44.50
2019-01-30T14:35:21.906Z,44.60
2019-01-30T14:37:49.379Z,45.10
2019-01-30T14:40:18.024Z,44.60
2019-01-30T14:42:45.505Z,44.70
2019-01-30T14:45:14.261Z,44.60
2019-01-30T14:47:41.724Z,45.00
2019-01-30T14:50:10.888Z,44.60
2019-01-30T14:52:38.443Z,44.50
2019-01-30T14:55:07.143Z,44.60
2019-01-30T14:57:34.650Z,44.50
2019-01-30T15:00:02.342Z,44.50
2019-01-30T15:02:29.817Z,44.50
2019-01-30T15:04:57.424Z,44.60
2019-01-30T15:07:29.151Z,44.80
2019-01-30T15:09:54.133Z,44.90
2019-01-30T15:12:21.603Z,44.90
2019-01-30T15:14:49.072Z,44.50
2019-01-30T15:17:16.526Z,44.40
2019-01-30T15:19:44.010Z,44.30
2019-01-30T15:22:11.462Z,44.30
2019-01-30T15:24:39.009Z,44.50
2019-01-30T15:27:06.464Z,44.60
2019-01-30T15:29:34.010Z,44.60
2019-01-30T15:32:01.477Z,44.60
2019-01-30T15:34:28.951Z,44.70
2019-01-30T15:36:56.478Z,44.70
2019-01-30T15:39:24.108Z,44.70
2019-01-30T15:41:51.699Z,44.80
2019-01-30T15:44:19.164Z,44.70
2019-01-30T15:46:46.640Z,44.70
2019-01-30T15:49:14.116Z,44.60
2019-01-30T15:51:41.578Z,44.60
2019-01-30T15:54:09.062Z,45.10
2019-01-30T15:56:36.549Z,44.90
2019-01-30T15:59:05.337Z,44.80
2019-01-30T16:01:32.793Z,44.80
2019-01-30T16:04:00.271Z,44.80
2019-01-30T16:06:27.740Z,44.80
2019-01-30T16:08:55.245Z,44.80
2019-01-30T16:11:22.709Z,44.90
2019-01-30T16:13:50.181Z,44.80
2019-01-30T16:16:17.651Z,44.80
2019-01-30T16:18:45.126Z,44.80
2019-01-30T16:21:12.591Z,44.80
2019-01-30T16:23:40.149Z,44.80
2019-01-30T16:26:07.624Z,44.80
2019-01-30T16:28:35.094Z,44.80
2019-01-30T16:31:02.570Z,45.20
2019-01-30T16:33:30.041Z,44.90
2019-01-30T16:35:57.518Z,44.80
2019-01-30T16:38:24.991Z,44.90
2019-01-30T16:40:52.526Z,44.80
2019-01-30T16:43:19.990Z,44.80
2019-01-30T16:45:47.502Z,44.80
2019-01-30T16:48:14.965Z,44.80
2019-01-30T16:50:42.459Z,44.90
2019-01-30T16:53:10.177Z,44.90
2019-01-30T16:55:38.137Z,44.80
2019-01-30T16:58:06.309Z,44.90
2019-01-30T17:00:34.341Z,44.80
2019-01-30T17:03:02.478Z,44.80
2019-01-30T17:05:30.386Z,44.80
2019-01-30T17:07:58.020Z,44.80
2019-01-30T17:10:25.490Z,44.70
2019-01-30T17:12:52.957Z,44.80
2019-01-30T17:15:44.498Z,44.70
2019-01-30T17:18:12.537Z,44.60
2019-01-30T17:20:40.678Z,44.60
2019-01-30T17:23:08.157Z,44.70
2019-01-30T17:25:35.638Z,44.90
2019-01-30T17:28:03.194Z,44.90
2019-01-30T17:30:31.938Z,44.80
2019-01-30T17:32:59.402Z,44.80
2019-01-30T17:35:26.865Z,44.70
2019-01-30T17:37:54.341Z,44.90
2019-01-30T17:40:22.974Z,44.90
2019-01-30T17:42:50.497Z,44.90
2019-01-30T17:45:17.965Z,44.80
2019-01-30T17:47:45.439Z,44.80
2019-01-30T17:50:14.538Z,44.80
2019-01-30T17:52:42.015Z,44.80
2019-01-30T17:55:09.482Z,44.90
2019-01-30T17:57:36.973Z,44.80
2019-01-30T18:00:16.587Z,44.90
2019-01-30T18:02:43.482Z,44.80
2019-01-30T18:05:10.955Z,44.80
2019-01-30T18:07:38.428Z,44.90
2019-01-30T18:10:07.525Z,45.50
2019-01-30T18:12:35.002Z,44.90
2019-01-30T18:15:02.638Z,44.90
2019-01-30T18:17:30.109Z,44.90
2019-01-30T18:19:57.578Z,44.80
2019-01-30T18:22:25.062Z,44.80
2019-01-30T18:24:52.555Z,44.90
2019-01-30T18:27:20.020Z,44.80
2019-01-30T18:29:47.500Z,44.90
2019-01-30T18:32:14.966Z,45.00
2019-01-30T18:34:42.458Z,44.90
2019-01-30T18:37:09.990Z,44.90
2019-01-30T18:39:37.461Z,44.90
2019-01-30T18:42:04.931Z,45.00
2019-01-30T18:44:32.410Z,44.90
2019-01-30T18:46:59.964Z,44.90
2019-01-30T18:49:27.433Z,44.90
2019-01-30T18:51:54.921Z,44.90
2019-01-30T18:54:22.396Z,44.90
2019-01-30T18:56:51.757Z,44.90
2019-01-30T18:59:19.300Z,44.80
2019-01-30T19:01:46.765Z,44.90
2019-01-30T19:04:14.294Z,44.90
2019-01-30T19:06:51.607Z,44.90
2019-01-30T19:09:10.980Z,44.90
2019-01-30T19:11:38.445Z,45.50
2019-01-30T19:14:05.929Z,44.90
2019-01-30T19:16:33.392Z,44.90
2019-01-30T19:19:00.868Z,44.90
2019-01-30T19:21:28.348Z,44.90
2019-01-30T19:23:56.069Z,44.90
2019-01-30T19:26:23.545Z,44.90
2019-01-30T19:28:51.017Z,44.70
2019-01-30T19:31:18.489Z,45.40
2019-01-30T19:33:45.975Z,44.90
2019-01-30T19:36:13.510Z,44.90
2019-01-30T19:38:40.981Z,44.90
2019-01-30T19:41:08.450Z,44.90
2019-01-30T19:43:36.160Z,44.90
2019-01-30T19:46:03.638Z,44.90
2019-01-30T19:48:31.105Z,44.90
2019-01-30T19:51:01.520Z,45.60
2019-01-30T19:53:27.753Z,44.90
2019-01-30T19:55:55.229Z,44.90
2019-01-30T19:58:22.709Z,45.00
2019-01-30T20:00:50.182Z,44.90
2019-01-30T20:03:18.918Z,44.90
2019-01-30T20:05:46.388Z,44.60
2019-01-30T20:08:14.105Z,44.70
2019-01-30T20:10:41.587Z,44.70
2019-01-30T20:13:09.052Z,44.80
2019-01-30T20:15:42.225Z,44.90
2019-01-30T20:18:09.697Z,44.90
2019-01-30T20:20:37.188Z,44.80
2019-01-30T20:23:04.925Z,45.40
2019-01-30T20:25:33.783Z,44.90
2019-01-30T20:28:01.242Z,44.90
2019-01-30T20:30:28.721Z,44.90
2019-01-30T20:32:56.197Z,44.90
2019-01-30T20:35:23.656Z,44.90
2019-01-30T20:37:51.116Z,44.80
2019-01-30T20:40:22.360Z,44.90
2019-01-30T20:42:52.609Z,44.80
2019-01-30T20:45:19.043Z,44.90
2019-01-30T20:47:46.515Z,44.90
2019-01-30T20:50:20.737Z,44.90
2019-01-30T20:52:48.215Z,44.90
2019-01-30T20:55:16.246Z,44.90
2019-01-30T20:57:43.806Z,44.90
2019-01-30T21:00:12.901Z,44.90
2019-01-30T21:02:40.382Z,44.90
2019-01-30T21:05:08.227Z,44.90
2019-01-30T21:07:37.296Z,44.90
2019-01-30T21:10:06.521Z,45.50
2019-01-30T21:12:33.998Z,45.50
2019-01-30T21:15:01.462Z,45.50
2019-01-30T21:17:28.937Z,45.50
2019-01-30T21:19:56.406Z,45.70
2019-01-30T21:22:23.876Z,45.80
2019-01-30T21:24:51.345Z,45.80
2019-01-30T21:27:18.834Z,46.00
2019-01-30T21:29:46.332Z,45.60
2019-01-30T21:32:13.793Z,45.60
2019-01-30T21:34:41.268Z,45.50
2019-01-30T21:37:08.734Z,46.10
2019-01-30T21:39:36.201Z,45.60
2019-01-30T21:42:03.664Z,45.70
2019-01-30T21:44:31.137Z,45.80
2019-01-30T21:47:01.326Z,45.70
2019-01-30T21:49:27.802Z,45.60
2019-01-30T21:51:55.294Z,45.70
2019-01-30T21:54:22.777Z,45.70
2019-01-30T21:56:50.241Z,45.60
2019-01-30T21:59:17.713Z,45.60
2019-01-30T22:01:45.185Z,45.50
2019-01-30T22:04:12.669Z,45.50
2019-01-30T22:06:40.145Z,45.50
2019-01-30T22:09:07.618Z,45.50
2019-01-30T22:11:35.077Z,46.20
2019-01-30T22:14:02.555Z,45.70
2019-01-30T22:16:30.022Z,45.70
2019-01-30T22:18:57.506Z,45.60
2019-01-30T22:21:24.977Z,45.60
2019-01-30T22:23:52.457Z,45.70
2019-01-30T22:26:19.939Z,45.70
2019-01-30T22:28:47.422Z,45.80
2019-01-30T22:31:14.886Z,45.80
2019-01-30T22:33:42.378Z,45.70
2019-01-30T22:36:09.846Z,45.70
2019-01-30T22:38:37.306Z,45.60
2019-01-30T22:41:04.777Z,45.40
2019-01-30T22:43:32.240Z,45.50
2019-01-30T22:45:59.717Z,45.50
2019-01-30T22:48:27.185Z,45.50
2019-01-30T22:50:54.654Z,45.50
2019-01-30T22:53:22.125Z,45.40
2019-01-30T22:55:49.594Z,45.50
2019-01-30T22:58:17.058Z,45.40
2019-01-30T23:00:53.372Z,45.40
2019-01-30T23:03:22.521Z,45.70
2019-01-30T23:05:57.645Z,45.90
2019-01-30T23:08:25.381Z,45.40
2019-01-30T23:11:00.412Z,45.40
2019-01-30T23:13:29.505Z,45.40
2019-01-30T23:16:01.366Z,45.40
2019-01-30T23:18:30.461Z,45.40
2019-01-30T23:20:59.561Z,45.40
2019-01-30T23:23:43.909Z,45.40
2019-01-30T23:26:15.681Z,46.00
2019-01-30T23:28:44.774Z,45.40
2019-01-30T23:31:16.795Z,45.40
2019-01-30T23:33:45.889Z,45.20
2019-01-30T23:36:14.997Z,45.20
2019-01-30T23:38:49.773Z,45.30
2019-01-30T23:41:24.937Z,46.00
2019-01-30T23:43:54.029Z,45.20
2019-01-30T23:46:26.087Z,45.20
2019-01-30T23:48:55.201Z,45.30
2019-01-30T23:51:40.818Z,45.40
2019-01-30T23:54:12.581Z,45.40
2019-01-30T23:56:41.697Z,45.20
2019-01-30T23:59:13.507Z,45.20
